sensor_id;sensor_type;location;lat;lon;timestamp;temperature;humidity
37642;DHT22;23486;51.956;5.888;2022-09-30T00:01:47;7.20;99.90
37642;DHT22;23486;51.956;5.888;2022-09-30T00:04:20;7.20;99.90
37642;DHT22;23486;51.956;5.888;2022-09-30T00:06:46;7.20;99.90
37642;DHT22;23486;51.956;5.888;2022-09-30T00:09:12;7.10;99.90
37642;DHT22;23486;51.956;5.888;2022-09-30T00:11:40;7.10;99.90
37642;DHT22;23486;51.956;5.888;2022-09-30T00:14:07;7.10;99.90
37642;DHT22;23486;51.956;5.888;2022-09-30T00:16:36;7.10;99.90
37642;DHT22;23486;51.956;5.888;2022-09-30T00:19:03;7.00;99.90
37642;DHT22;23486;51.956;5.888;2022-09-30T00:21:30;7.00;99.90
37642;DHT22;23486;51.956;5.888;2022-09-30T00:23:58;7.00;99.90
37642;DHT22;23486;51.956;5.888;2022-09-30T00:26:24;7.00;99.90
37642;DHT22;23486;51.956;5.888;2022-09-30T00:28:51;7.00;99.90
37642;DHT22;23486;51.956;5.888;2022-09-30T00:31:19;7.00;99.90
37642;DHT22;23486;51.956;5.888;2022-09-30T00:33:45;6.90;99.90
37642;DHT22;23486;51.956;5.888;2022-09-30T00:36:30;6.90;99.90
37642;DHT22;23486;51.956;5.888;2022-09-30T00:38:55;6.90;99.90
37642;DHT22;23486;51.956;5.888;2022-09-30T00:41:21;6.90;99.90
37642;DHT22;23486;51.956;5.888;2022-09-30T00:43:48;6.80;99.90
37642;DHT22;23486;51.956;5.888;2022-09-30T00:46:36;6.80;99.90
37642;DHT22;23486;51.956;5.888;2022-09-30T00:49:10;6.80;99.90
37642;DHT22;23486;51.956;5.888;2022-09-30T00:51:41;6.80;99.90
37642;DHT22;23486;51.956;5.888;2022-09-30T00:54:18;6.80;99.90
37642;DHT22;23486;51.956;5.888;2022-09-30T00:56:49;6.70;99.90
37642;DHT22;23486;51.956;5.888;2022-09-30T00:59:20;6.70;99.90
37642;DHT22;23486;51.956;5.888;2022-09-30T01:01:50;6.60;99.90
37642;DHT22;23486;51.956;5.888;2022-09-30T01:04:23;6.60;99.90
37642;DHT22;23486;51.956;5.888;2022-09-30T01:06:50;6.60;99.90
37642;DHT22;23486;51.956;5.888;2022-09-30T01:09:19;6.60;99.90
37642;DHT22;23486;51.956;5.888;2022-09-30T01:11:45;6.60;99.90
37642;DHT22;23486;51.956;5.888;2022-09-30T01:14:20;6.60;99.90
37642;DHT22;23486;51.956;5.888;2022-09-30T01:19:29;6.60;99.90
37642;DHT22;23486;51.956;5.888;2022-09-30T01:30:16;6.50;99.90
37642;DHT22;23486;51.956;5.888;2022-09-30T01:32:49;6.50;99.90
37642;DHT22;23486;51.956;5.888;2022-09-30T01:35:38;6.50;99.90
37642;DHT22;23486;51.956;5.888;2022-09-30T01:41:33;6.30;99.90
37642;DHT22;23486;51.956;5.888;2022-09-30T01:46:36;6.30;99.90
37642;DHT22;23486;51.956;5.888;2022-09-30T01:52:19;6.30;99.90
37642;DHT22;23486;51.956;5.888;2022-09-30T01:54:47;6.20;99.90
37642;DHT22;23486;51.956;5.888;2022-09-30T01:57:21;6.20;99.90
37642;DHT22;23486;51.956;5.888;2022-09-30T01:59:57;6.20;99.90
37642;DHT22;23486;51.956;5.888;2022-09-30T02:02:30;6.20;99.90
37642;DHT22;23486;51.956;5.888;2022-09-30T02:05:10;6.20;99.90
37642;DHT22;23486;51.956;5.888;2022-09-30T02:07:42;6.20;99.90
37642;DHT22;23486;51.956;5.888;2022-09-30T02:10:16;6.10;99.90
37642;DHT22;23486;51.956;5.888;2022-09-30T02:12:57;6.10;99.90
37642;DHT22;23486;51.956;5.888;2022-09-30T02:15:37;6.10;99.90
37642;DHT22;23486;51.956;5.888;2022-09-30T02:18:12;6.10;99.90
37642;DHT22;23486;51.956;5.888;2022-09-30T02:20:41;6.10;99.90
37642;DHT22;23486;51.956;5.888;2022-09-30T02:23:16;6.10;99.90
37642;DHT22;23486;51.956;5.888;2022-09-30T02:25:47;6.10;99.90
37642;DHT22;23486;51.956;5.888;2022-09-30T02:28:19;6.10;99.90
37642;DHT22;23486;51.956;5.888;2022-09-30T02:30:49;6.00;99.90
37642;DHT22;23486;51.956;5.888;2022-09-30T02:33:24;6.00;99.90
37642;DHT22;23486;51.956;5.888;2022-09-30T02:35:57;6.00;99.90
37642;DHT22;23486;51.956;5.888;2022-09-30T02:38:29;6.00;99.90
37642;DHT22;23486;51.956;5.888;2022-09-30T02:41:00;6.00;99.90
37642;DHT22;23486;51.956;5.888;2022-09-30T02:43:27;5.90;99.90
37642;DHT22;23486;51.956;5.888;2022-09-30T02:48:43;5.90;99.90
37642;DHT22;23486;51.956;5.888;2022-09-30T02:51:19;5.90;99.90
37642;DHT22;23486;51.956;5.888;2022-09-30T02:54:10;5.90;99.90
37642;DHT22;23486;51.956;5.888;2022-09-30T02:56:52;5.90;99.90
37642;DHT22;23486;51.956;5.888;2022-09-30T02:59:20;5.90;99.90
37642;DHT22;23486;51.956;5.888;2022-09-30T03:01:46;5.90;99.90
37642;DHT22;23486;51.956;5.888;2022-09-30T03:04:15;5.80;99.90
37642;DHT22;23486;51.956;5.888;2022-09-30T03:06:42;5.80;99.90
37642;DHT22;23486;51.956;5.888;2022-09-30T03:09:07;5.80;99.90
37642;DHT22;23486;51.956;5.888;2022-09-30T03:11:34;5.80;99.90
37642;DHT22;23486;51.956;5.888;2022-09-30T03:28:33;5.70;99.90
37642;DHT22;23486;51.956;5.888;2022-09-30T03:31:31;5.70;99.90
37642;DHT22;23486;51.956;5.888;2022-09-30T03:34:27;5.70;99.90
37642;DHT22;23486;51.956;5.888;2022-09-30T03:37:16;5.70;99.90
37642;DHT22;23486;51.956;5.888;2022-09-30T03:42:46;5.80;99.90
37642;DHT22;23486;51.956;5.888;2022-09-30T03:45:28;5.70;99.90
37642;DHT22;23486;51.956;5.888;2022-09-30T03:48:00;5.70;99.90
37642;DHT22;23486;51.956;5.888;2022-09-30T03:50:27;5.70;99.90
37642;DHT22;23486;51.956;5.888;2022-09-30T03:52:54;5.70;99.90
37642;DHT22;23486;51.956;5.888;2022-09-30T03:55:21;5.60;99.90
37642;DHT22;23486;51.956;5.888;2022-09-30T03:57:47;5.60;99.90
37642;DHT22;23486;51.956;5.888;2022-09-30T04:00:14;5.60;99.90
37642;DHT22;23486;51.956;5.888;2022-09-30T04:02:40;5.60;99.90
37642;DHT22;23486;51.956;5.888;2022-09-30T04:05:06;5.50;99.90
37642;DHT22;23486;51.956;5.888;2022-09-30T04:07:33;5.50;99.90
37642;DHT22;23486;51.956;5.888;2022-09-30T04:09:59;5.50;99.90
37642;DHT22;23486;51.956;5.888;2022-09-30T04:12:27;5.50;99.90
37642;DHT22;23486;51.956;5.888;2022-09-30T04:14:53;5.50;99.90
37642;DHT22;23486;51.956;5.888;2022-09-30T04:17:18;5.50;99.90
37642;DHT22;23486;51.956;5.888;2022-09-30T04:19:44;5.50;99.90
37642;DHT22;23486;51.956;5.888;2022-09-30T04:22:09;5.50;99.90
37642;DHT22;23486;51.956;5.888;2022-09-30T04:24:35;5.40;99.90
37642;DHT22;23486;51.956;5.888;2022-09-30T04:27:02;5.40;99.90
37642;DHT22;23486;51.956;5.888;2022-09-30T04:29:28;5.40;99.90
37642;DHT22;23486;51.956;5.888;2022-09-30T04:31:53;5.40;99.90
37642;DHT22;23486;51.956;5.888;2022-09-30T04:34:19;5.40;99.90
37642;DHT22;23486;51.956;5.888;2022-09-30T04:36:45;5.30;99.90
37642;DHT22;23486;51.956;5.888;2022-09-30T04:39:10;5.30;99.90
37642;DHT22;23486;51.956;5.888;2022-09-30T04:41:36;5.30;99.90
37642;DHT22;23486;51.956;5.888;2022-09-30T04:44:05;5.30;99.90
37642;DHT22;23486;51.956;5.888;2022-09-30T04:46:32;5.30;99.90
37642;DHT22;23486;51.956;5.888;2022-09-30T04:48:59;5.30;99.90
37642;DHT22;23486;51.956;5.888;2022-09-30T04:51:25;5.30;99.90
37642;DHT22;23486;51.956;5.888;2022-09-30T04:53:51;5.20;99.90
37642;DHT22;23486;51.956;5.888;2022-09-30T04:56:17;5.20;99.90
37642;DHT22;23486;51.956;5.888;2022-09-30T04:58:43;5.20;99.90
37642;DHT22;23486;51.956;5.888;2022-09-30T05:01:12;5.20;99.90
37642;DHT22;23486;51.956;5.888;2022-09-30T05:03:38;5.20;99.90
37642;DHT22;23486;51.956;5.888;2022-09-30T05:06:04;5.10;99.90
37642;DHT22;23486;51.956;5.888;2022-09-30T05:08:30;5.10;99.90
37642;DHT22;23486;51.956;5.888;2022-09-30T05:11:00;5.10;99.90
37642;DHT22;23486;51.956;5.888;2022-09-30T05:13:34;5.20;99.90
37642;DHT22;23486;51.956;5.888;2022-09-30T05:16:01;5.10;99.90
37642;DHT22;23486;51.956;5.888;2022-09-30T05:18:27;5.10;99.90
37642;DHT22;23486;51.956;5.888;2022-09-30T05:20:54;5.10;99.90
37642;DHT22;23486;51.956;5.888;2022-09-30T05:23:22;5.00;99.90
37642;DHT22;23486;51.956;5.888;2022-09-30T05:25:49;5.10;99.90
37642;DHT22;23486;51.956;5.888;2022-09-30T05:28:19;5.10;99.90
37642;DHT22;23486;51.956;5.888;2022-09-30T05:30:45;5.10;99.90
37642;DHT22;23486;51.956;5.888;2022-09-30T05:33:12;5.10;99.90
37642;DHT22;23486;51.956;5.888;2022-09-30T05:35:42;5.00;99.90
37642;DHT22;23486;51.956;5.888;2022-09-30T05:38:08;5.00;99.90
37642;DHT22;23486;51.956;5.888;2022-09-30T05:40:36;5.10;99.90
37642;DHT22;23486;51.956;5.888;2022-09-30T05:43:03;5.10;99.90
37642;DHT22;23486;51.956;5.888;2022-09-30T05:45:29;5.10;99.90
37642;DHT22;23486;51.956;5.888;2022-09-30T05:47:55;5.10;99.90
37642;DHT22;23486;51.956;5.888;2022-09-30T05:50:22;5.10;99.90
37642;DHT22;23486;51.956;5.888;2022-09-30T05:52:48;5.10;99.90
37642;DHT22;23486;51.956;5.888;2022-09-30T05:55:18;5.10;99.90
37642;DHT22;23486;51.956;5.888;2022-09-30T05:57:47;5.10;99.90
37642;DHT22;23486;51.956;5.888;2022-09-30T06:00:13;5.10;99.90
37642;DHT22;23486;51.956;5.888;2022-09-30T06:02:39;5.10;99.90
37642;DHT22;23486;51.956;5.888;2022-09-30T06:05:08;5.10;99.90
37642;DHT22;23486;51.956;5.888;2022-09-30T06:07:34;5.20;99.90
37642;DHT22;23486;51.956;5.888;2022-09-30T06:10:01;5.20;99.90
37642;DHT22;23486;51.956;5.888;2022-09-30T06:12:27;5.20;99.90
37642;DHT22;23486;51.956;5.888;2022-09-30T06:14:54;5.20;99.90
37642;DHT22;23486;51.956;5.888;2022-09-30T06:17:20;5.20;99.90
37642;DHT22;23486;51.956;5.888;2022-09-30T06:19:46;5.20;99.90
37642;DHT22;23486;51.956;5.888;2022-09-30T06:22:14;5.30;99.90
37642;DHT22;23486;51.956;5.888;2022-09-30T06:24:40;5.30;99.90
37642;DHT22;23486;51.956;5.888;2022-09-30T06:27:06;5.30;99.90
37642;DHT22;23486;51.956;5.888;2022-09-30T06:29:31;5.40;99.90
37642;DHT22;23486;51.956;5.888;2022-09-30T06:32:00;5.40;99.90
37642;DHT22;23486;51.956;5.888;2022-09-30T06:34:29;5.40;99.90
37642;DHT22;23486;51.956;5.888;2022-09-30T06:36:54;5.50;99.90
37642;DHT22;23486;51.956;5.888;2022-09-30T06:39:20;5.50;99.90
37642;DHT22;23486;51.956;5.888;2022-09-30T06:41:45;5.50;99.90
37642;DHT22;23486;51.956;5.888;2022-09-30T06:44:11;5.60;99.90
37642;DHT22;23486;51.956;5.888;2022-09-30T06:46:40;5.60;99.90
37642;DHT22;23486;51.956;5.888;2022-09-30T06:49:05;5.70;99.90
37642;DHT22;23486;51.956;5.888;2022-09-30T06:51:32;5.70;99.90
37642;DHT22;23486;51.956;5.888;2022-09-30T06:54:01;5.80;99.90
37642;DHT22;23486;51.956;5.888;2022-09-30T06:56:26;5.80;99.90
37642;DHT22;23486;51.956;5.888;2022-09-30T06:58:52;5.90;99.90
37642;DHT22;23486;51.956;5.888;2022-09-30T07:01:19;5.90;99.90
37642;DHT22;23486;51.956;5.888;2022-09-30T07:03:46;6.00;99.90
37642;DHT22;23486;51.956;5.888;2022-09-30T07:06:13;6.00;99.90
37642;DHT22;23486;51.956;5.888;2022-09-30T07:08:48;6.00;99.90
37642;DHT22;23486;51.956;5.888;2022-09-30T07:11:13;6.10;99.90
37642;DHT22;23486;51.956;5.888;2022-09-30T07:13:41;6.20;99.90
37642;DHT22;23486;51.956;5.888;2022-09-30T07:16:08;6.20;99.90
37642;DHT22;23486;51.956;5.888;2022-09-30T07:18:38;6.30;99.90
37642;DHT22;23486;51.956;5.888;2022-09-30T07:21:07;6.40;99.90
37642;DHT22;23486;51.956;5.888;2022-09-30T07:23:33;6.40;99.90
37642;DHT22;23486;51.956;5.888;2022-09-30T07:26:00;6.60;99.90
37642;DHT22;23486;51.956;5.888;2022-09-30T07:28:33;6.60;99.90
37642;DHT22;23486;51.956;5.888;2022-09-30T07:31:01;6.60;99.90
37642;DHT22;23486;51.956;5.888;2022-09-30T07:33:30;6.70;99.90
37642;DHT22;23486;51.956;5.888;2022-09-30T07:35:58;6.80;99.90
37642;DHT22;23486;51.956;5.888;2022-09-30T07:38:29;6.90;99.90
37642;DHT22;23486;51.956;5.888;2022-09-30T07:41:10;6.90;99.90
37642;DHT22;23486;51.956;5.888;2022-09-30T07:43:37;7.00;99.90
37642;DHT22;23486;51.956;5.888;2022-09-30T07:46:07;7.00;99.90
37642;DHT22;23486;51.956;5.888;2022-09-30T07:48:38;7.10;99.90
37642;DHT22;23486;51.956;5.888;2022-09-30T07:51:03;7.20;99.90
37642;DHT22;23486;51.956;5.888;2022-09-30T07:53:29;7.20;99.90
37642;DHT22;23486;51.956;5.888;2022-09-30T07:55:55;7.30;99.90
37642;DHT22;23486;51.956;5.888;2022-09-30T07:58:20;7.40;99.90
37642;DHT22;23486;51.956;5.888;2022-09-30T08:00:47;7.40;99.90
37642;DHT22;23486;51.956;5.888;2022-09-30T08:03:15;7.50;99.90
37642;DHT22;23486;51.956;5.888;2022-09-30T08:05:41;7.60;99.90
37642;DHT22;23486;51.956;5.888;2022-09-30T08:08:11;7.70;99.90
37642;DHT22;23486;51.956;5.888;2022-09-30T08:10:37;7.80;99.90
37642;DHT22;23486;51.956;5.888;2022-09-30T08:13:03;7.90;99.90
37642;DHT22;23486;51.956;5.888;2022-09-30T08:15:28;7.90;99.90
37642;DHT22;23486;51.956;5.888;2022-09-30T08:17:54;8.00;99.90
37642;DHT22;23486;51.956;5.888;2022-09-30T08:20:19;8.10;99.90
37642;DHT22;23486;51.956;5.888;2022-09-30T08:22:45;8.20;99.90
37642;DHT22;23486;51.956;5.888;2022-09-30T08:25:10;8.30;99.90
37642;DHT22;23486;51.956;5.888;2022-09-30T08:27:37;8.40;99.90
37642;DHT22;23486;51.956;5.888;2022-09-30T08:30:03;8.50;99.90
37642;DHT22;23486;51.956;5.888;2022-09-30T08:32:29;8.60;99.90
37642;DHT22;23486;51.956;5.888;2022-09-30T08:34:55;8.70;99.90
37642;DHT22;23486;51.956;5.888;2022-09-30T08:37:21;8.80;99.90
37642;DHT22;23486;51.956;5.888;2022-09-30T08:39:46;8.90;99.90
37642;DHT22;23486;51.956;5.888;2022-09-30T08:42:42;9.00;99.90
37642;DHT22;23486;51.956;5.888;2022-09-30T08:48:29;9.20;99.90
37642;DHT22;23486;51.956;5.888;2022-09-30T08:51:25;9.30;99.90
37642;DHT22;23486;51.956;5.888;2022-09-30T08:53:54;9.40;99.90
37642;DHT22;23486;51.956;5.888;2022-09-30T08:56:31;9.50;99.90
37642;DHT22;23486;51.956;5.888;2022-09-30T08:59:04;9.60;99.90
37642;DHT22;23486;51.956;5.888;2022-09-30T09:01:37;9.80;99.90
37642;DHT22;23486;51.956;5.888;2022-09-30T09:04:05;9.80;99.90
37642;DHT22;23486;51.956;5.888;2022-09-30T09:12:06;10.20;99.90
37642;DHT22;23486;51.956;5.888;2022-09-30T09:17:19;10.30;99.90
37642;DHT22;23486;51.956;5.888;2022-09-30T09:22:34;10.50;99.90
37642;DHT22;23486;51.956;5.888;2022-09-30T09:25:01;10.60;99.90
37642;DHT22;23486;51.956;5.888;2022-09-30T09:28:01;10.60;99.90
37642;DHT22;23486;51.956;5.888;2022-09-30T09:30:36;10.70;99.90
37642;DHT22;23486;51.956;5.888;2022-09-30T09:33:21;10.80;99.90
37642;DHT22;23486;51.956;5.888;2022-09-30T09:42:07;11.20;99.90
37642;DHT22;23486;51.956;5.888;2022-09-30T09:47:03;11.50;99.90
37642;DHT22;23486;51.956;5.888;2022-09-30T09:49:32;11.60;99.90
37642;DHT22;23486;51.956;5.888;2022-09-30T09:54:46;11.80;99.90
37642;DHT22;23486;51.956;5.888;2022-09-30T09:57:18;11.90;99.90
37642;DHT22;23486;51.956;5.888;2022-09-30T09:59:59;12.00;99.90
37642;DHT22;23486;51.956;5.888;2022-09-30T10:02:57;12.10;99.90
37642;DHT22;23486;51.956;5.888;2022-09-30T10:05:24;12.20;99.90
37642;DHT22;23486;51.956;5.888;2022-09-30T10:10:52;12.40;99.90
37642;DHT22;23486;51.956;5.888;2022-09-30T10:16:02;12.60;99.90
37642;DHT22;23486;51.956;5.888;2022-09-30T10:18:32;12.60;99.90
37642;DHT22;23486;51.956;5.888;2022-09-30T10:21:16;12.70;99.90
37642;DHT22;23486;51.956;5.888;2022-09-30T10:23:44;12.70;99.90
37642;DHT22;23486;51.956;5.888;2022-09-30T10:26:16;12.80;99.90
37642;DHT22;23486;51.956;5.888;2022-09-30T10:28:57;12.90;99.90
37642;DHT22;23486;51.956;5.888;2022-09-30T10:31:24;12.90;99.90
37642;DHT22;23486;51.956;5.888;2022-09-30T10:36:22;13.10;99.90
37642;DHT22;23486;51.956;5.888;2022-09-30T10:41:44;13.30;99.90
37642;DHT22;23486;51.956;5.888;2022-09-30T10:44:16;13.30;99.90
37642;DHT22;23486;51.956;5.888;2022-09-30T10:46:44;13.30;99.90
37642;DHT22;23486;51.956;5.888;2022-09-30T10:51:48;13.40;99.90
37642;DHT22;23486;51.956;5.888;2022-09-30T10:54:35;13.40;99.90
37642;DHT22;23486;51.956;5.888;2022-09-30T10:57:15;13.60;99.90
37642;DHT22;23486;51.956;5.888;2022-09-30T10:59:43;13.60;99.90
37642;DHT22;23486;51.956;5.888;2022-09-30T11:03:15;13.60;99.90
37642;DHT22;23486;51.956;5.888;2022-09-30T11:05:21;13.80;99.90
37642;DHT22;23486;51.956;5.888;2022-09-30T11:08:12;13.80;99.90
37642;DHT22;23486;51.956;5.888;2022-09-30T11:10:46;13.80;99.90
37642;DHT22;23486;51.956;5.888;2022-09-30T11:13:22;13.80;99.90
37642;DHT22;23486;51.956;5.888;2022-09-30T11:16:02;13.90;99.90
37642;DHT22;23486;51.956;5.888;2022-09-30T11:18:36;14.00;99.90
37642;DHT22;23486;51.956;5.888;2022-09-30T11:21:20;14.10;99.90
37642;DHT22;23486;51.956;5.888;2022-09-30T11:23:55;14.20;99.90
37642;DHT22;23486;51.956;5.888;2022-09-30T11:26:46;14.30;99.90
37642;DHT22;23486;51.956;5.888;2022-09-30T11:32:23;14.40;99.90
37642;DHT22;23486;51.956;5.888;2022-09-30T11:35:03;14.50;99.90
37642;DHT22;23486;51.956;5.888;2022-09-30T11:37:47;14.50;99.90
37642;DHT22;23486;51.956;5.888;2022-09-30T11:40:38;14.50;99.90
37642;DHT22;23486;51.956;5.888;2022-09-30T11:51:50;14.70;99.90
37642;DHT22;23486;51.956;5.888;2022-09-30T11:57:16;14.90;99.90
37642;DHT22;23486;51.956;5.888;2022-09-30T11:59:58;15.00;99.90
37642;DHT22;23486;51.956;5.888;2022-09-30T12:05:02;15.20;99.90
37642;DHT22;23486;51.956;5.888;2022-09-30T12:10:26;15.40;99.90
37642;DHT22;23486;51.956;5.888;2022-09-30T12:12:59;15.40;99.90
37642;DHT22;23486;51.956;5.888;2022-09-30T12:15:26;15.50;99.90
37642;DHT22;23486;51.956;5.888;2022-09-30T12:18:01;15.50;99.90
37642;DHT22;23486;51.956;5.888;2022-09-30T12:21:08;15.50;99.90
37642;DHT22;23486;51.956;5.888;2022-09-30T12:23:42;15.50;99.90
37642;DHT22;23486;51.956;5.888;2022-09-30T12:26:10;15.60;99.90
37642;DHT22;23486;51.956;5.888;2022-09-30T12:28:46;15.60;99.90
37642;DHT22;23486;51.956;5.888;2022-09-30T12:37:24;15.90;99.90
37642;DHT22;23486;51.956;5.888;2022-09-30T12:48:07;16.00;99.90
37642;DHT22;23486;51.956;5.888;2022-09-30T12:50:45;16.00;99.90
37642;DHT22;23486;51.956;5.888;2022-09-30T12:53:32;16.20;99.90
37642;DHT22;23486;51.956;5.888;2022-09-30T12:56:12;16.20;99.90
37642;DHT22;23486;51.956;5.888;2022-09-30T12:58:49;16.10;99.90
37642;DHT22;23486;51.956;5.888;2022-09-30T13:01:24;16.00;99.90
37642;DHT22;23486;51.956;5.888;2022-09-30T13:06:24;15.90;99.90
37642;DHT22;23486;51.956;5.888;2022-09-30T13:09:15;15.80;99.90
37642;DHT22;23486;51.956;5.888;2022-09-30T13:11:43;15.70;99.90
37642;DHT22;23486;51.956;5.888;2022-09-30T13:19:41;15.90;99.90
37642;DHT22;23486;51.956;5.888;2022-09-30T13:27:51;16.20;99.90
37642;DHT22;23486;51.956;5.888;2022-09-30T13:32:47;16.30;99.90
37642;DHT22;23486;51.956;5.888;2022-09-30T13:43:38;16.40;99.90
37642;DHT22;23486;51.956;5.888;2022-09-30T13:46:21;16.30;99.90
37642;DHT22;23486;51.956;5.888;2022-09-30T13:49:01;16.10;99.90
37642;DHT22;23486;51.956;5.888;2022-09-30T13:51:30;16.10;99.90
37642;DHT22;23486;51.956;5.888;2022-09-30T13:54:06;16.00;99.90
37642;DHT22;23486;51.956;5.888;2022-09-30T13:56:36;16.20;99.90
37642;DHT22;23486;51.956;5.888;2022-09-30T14:10:34;16.30;99.90
37642;DHT22;23486;51.956;5.888;2022-09-30T14:21:35;16.50;99.90
37642;DHT22;23486;51.956;5.888;2022-09-30T14:24:12;16.50;99.90
37642;DHT22;23486;51.956;5.888;2022-09-30T14:35:06;16.60;99.90
37642;DHT22;23486;51.956;5.888;2022-09-30T14:37:42;16.60;99.90
37642;DHT22;23486;51.956;5.888;2022-09-30T14:40:31;16.60;99.90
37642;DHT22;23486;51.956;5.888;2022-09-30T14:42:59;16.60;99.90
37642;DHT22;23486;51.956;5.888;2022-09-30T14:45:29;16.70;99.90
37642;DHT22;23486;51.956;5.888;2022-09-30T14:47:59;16.70;99.90
37642;DHT22;23486;51.956;5.888;2022-09-30T14:50:29;16.60;99.90
37642;DHT22;23486;51.956;5.888;2022-09-30T14:53:02;16.60;99.90
37642;DHT22;23486;51.956;5.888;2022-09-30T14:55:33;16.50;99.90
37642;DHT22;23486;51.956;5.888;2022-09-30T14:58:19;16.50;99.90
37642;DHT22;23486;51.956;5.888;2022-09-30T15:01:15;16.50;99.90
37642;DHT22;23486;51.956;5.888;2022-09-30T15:03:57;16.60;99.90
37642;DHT22;23486;51.956;5.888;2022-09-30T15:09:00;16.50;99.90
37642;DHT22;23486;51.956;5.888;2022-09-30T15:11:28;16.40;99.90
37642;DHT22;23486;51.956;5.888;2022-09-30T15:14:02;16.30;99.90
37642;DHT22;23486;51.956;5.888;2022-09-30T15:16:31;16.20;99.90
37642;DHT22;23486;51.956;5.888;2022-09-30T15:18:57;16.20;99.90
37642;DHT22;23486;51.956;5.888;2022-09-30T15:21:25;16.20;99.90
37642;DHT22;23486;51.956;5.888;2022-09-30T15:23:55;16.20;99.90
37642;DHT22;23486;51.956;5.888;2022-09-30T15:26:24;16.20;99.90
37642;DHT22;23486;51.956;5.888;2022-09-30T15:28:50;16.20;99.90
37642;DHT22;23486;51.956;5.888;2022-09-30T15:31:27;16.20;99.90
37642;DHT22;23486;51.956;5.888;2022-09-30T15:34:25;16.30;99.90
37642;DHT22;23486;51.956;5.888;2022-09-30T15:36:58;16.30;99.90
37642;DHT22;23486;51.956;5.888;2022-09-30T15:39:28;16.50;99.90
37642;DHT22;23486;51.956;5.888;2022-09-30T15:42:32;16.70;99.90
37642;DHT22;23486;51.956;5.888;2022-09-30T15:45:15;16.80;99.90
37642;DHT22;23486;51.956;5.888;2022-09-30T15:47:54;16.90;99.90
37642;DHT22;23486;51.956;5.888;2022-09-30T15:53:50;16.80;99.90
37642;DHT22;23486;51.956;5.888;2022-09-30T15:56:36;16.80;99.90
37642;DHT22;23486;51.956;5.888;2022-09-30T15:59:15;16.70;99.90
37642;DHT22;23486;51.956;5.888;2022-09-30T16:01:50;16.60;99.90
37642;DHT22;23486;51.956;5.888;2022-09-30T16:09:39;16.30;99.90
37642;DHT22;23486;51.956;5.888;2022-09-30T16:14:48;16.00;99.90
37642;DHT22;23486;51.956;5.888;2022-09-30T16:19:58;15.80;99.90
37642;DHT22;23486;51.956;5.888;2022-09-30T16:25:07;15.80;99.90
37642;DHT22;23486;51.956;5.888;2022-09-30T16:27:36;15.80;99.90
37642;DHT22;23486;51.956;5.888;2022-09-30T16:30:04;15.80;99.90
37642;DHT22;23486;51.956;5.888;2022-09-30T16:32:37;15.80;99.90
37642;DHT22;23486;51.956;5.888;2022-09-30T16:35:04;15.70;99.90
37642;DHT22;23486;51.956;5.888;2022-09-30T16:37:30;15.60;99.90
37642;DHT22;23486;51.956;5.888;2022-09-30T16:40:00;15.50;99.90
37642;DHT22;23486;51.956;5.888;2022-09-30T16:42:29;15.30;99.90
37642;DHT22;23486;51.956;5.888;2022-09-30T16:44:57;15.20;99.90
37642;DHT22;23486;51.956;5.888;2022-09-30T16:47:25;15.10;99.90
37642;DHT22;23486;51.956;5.888;2022-09-30T16:49:50;15.00;99.90
37642;DHT22;23486;51.956;5.888;2022-09-30T16:52:16;14.90;99.90
37642;DHT22;23486;51.956;5.888;2022-09-30T16:54:42;14.80;99.90
37642;DHT22;23486;51.956;5.888;2022-09-30T16:57:11;14.80;99.90
37642;DHT22;23486;51.956;5.888;2022-09-30T16:59:37;14.70;99.90
37642;DHT22;23486;51.956;5.888;2022-09-30T17:02:03;14.60;99.90
37642;DHT22;23486;51.956;5.888;2022-09-30T17:04:29;14.60;99.90
37642;DHT22;23486;51.956;5.888;2022-09-30T17:06:56;14.50;99.90
37642;DHT22;23486;51.956;5.888;2022-09-30T17:09:26;14.50;99.90
37642;DHT22;23486;51.956;5.888;2022-09-30T17:11:51;14.40;99.90
37642;DHT22;23486;51.956;5.888;2022-09-30T17:14:17;14.30;99.90
37642;DHT22;23486;51.956;5.888;2022-09-30T17:16:44;14.30;99.90
37642;DHT22;23486;51.956;5.888;2022-09-30T17:19:11;14.20;99.90
37642;DHT22;23486;51.956;5.888;2022-09-30T17:21:36;14.10;99.90
37642;DHT22;23486;51.956;5.888;2022-09-30T17:24:02;14.10;99.90
37642;DHT22;23486;51.956;5.888;2022-09-30T17:26:28;14.00;99.90
37642;DHT22;23486;51.956;5.888;2022-09-30T17:28:54;13.90;99.90
37642;DHT22;23486;51.956;5.888;2022-09-30T17:31:23;13.80;99.90
37642;DHT22;23486;51.956;5.888;2022-09-30T17:33:51;13.80;99.90
37642;DHT22;23486;51.956;5.888;2022-09-30T17:36:17;13.70;99.90
37642;DHT22;23486;51.956;5.888;2022-09-30T17:38:43;13.60;99.90
37642;DHT22;23486;51.956;5.888;2022-09-30T17:41:16;13.50;99.90
37642;DHT22;23486;51.956;5.888;2022-09-30T17:44:00;13.50;99.90
37642;DHT22;23486;51.956;5.888;2022-09-30T17:46:27;13.40;99.90
37642;DHT22;23486;51.956;5.888;2022-09-30T17:48:56;13.40;99.90
37642;DHT22;23486;51.956;5.888;2022-09-30T17:51:22;13.40;99.90
37642;DHT22;23486;51.956;5.888;2022-09-30T17:53:47;13.30;99.90
37642;DHT22;23486;51.956;5.888;2022-09-30T17:56:19;13.20;99.90
37642;DHT22;23486;51.956;5.888;2022-09-30T17:58:47;13.20;99.90
37642;DHT22;23486;51.956;5.888;2022-09-30T18:01:16;13.20;99.90
37642;DHT22;23486;51.956;5.888;2022-09-30T18:03:42;13.20;99.90
37642;DHT22;23486;51.956;5.888;2022-09-30T18:06:11;13.20;99.90
37642;DHT22;23486;51.956;5.888;2022-09-30T18:08:38;13.20;99.90
37642;DHT22;23486;51.956;5.888;2022-09-30T18:11:05;13.10;99.90
37642;DHT22;23486;51.956;5.888;2022-09-30T18:13:30;13.00;99.90
37642;DHT22;23486;51.956;5.888;2022-09-30T18:15:56;13.00;99.90
37642;DHT22;23486;51.956;5.888;2022-09-30T18:21:14;12.80;99.90
37642;DHT22;23486;51.956;5.888;2022-09-30T18:23:40;12.80;99.90
37642;DHT22;23486;51.956;5.888;2022-09-30T18:26:08;12.70;99.90
37642;DHT22;23486;51.956;5.888;2022-09-30T18:28:34;12.70;99.90
37642;DHT22;23486;51.956;5.888;2022-09-30T18:31:05;12.60;99.90
37642;DHT22;23486;51.956;5.888;2022-09-30T18:33:32;12.60;99.90
37642;DHT22;23486;51.956;5.888;2022-09-30T18:36:04;12.50;99.90
37642;DHT22;23486;51.956;5.888;2022-09-30T18:38:32;12.50;99.90
37642;DHT22;23486;51.956;5.888;2022-09-30T18:40:57;12.40;99.90
37642;DHT22;23486;51.956;5.888;2022-09-30T18:43:23;12.40;99.90
37642;DHT22;23486;51.956;5.888;2022-09-30T18:45:54;12.40;99.90
37642;DHT22;23486;51.956;5.888;2022-09-30T18:48:24;12.30;99.90
37642;DHT22;23486;51.956;5.888;2022-09-30T18:50:50;12.30;99.90
37642;DHT22;23486;51.956;5.888;2022-09-30T18:53:20;12.30;99.90
37642;DHT22;23486;51.956;5.888;2022-09-30T18:55:47;12.30;99.90
37642;DHT22;23486;51.956;5.888;2022-09-30T18:58:13;12.30;99.90
37642;DHT22;23486;51.956;5.888;2022-09-30T19:00:42;12.30;99.90
37642;DHT22;23486;51.956;5.888;2022-09-30T19:03:08;12.30;99.90
37642;DHT22;23486;51.956;5.888;2022-09-30T19:05:39;12.30;99.90
37642;DHT22;23486;51.956;5.888;2022-09-30T19:08:05;12.40;99.90
37642;DHT22;23486;51.956;5.888;2022-09-30T19:10:32;12.30;99.90
37642;DHT22;23486;51.956;5.888;2022-09-30T19:12:59;12.40;99.90